Time;durP1;ratioP1;P1;durP2;ratioP2;P2;SDS_P1;SDS_P2;PMS_P1;PMS_P2;Temp;Humidity;BMP_temperature;BMP_pressure;BME280_temperature;BME280_humidity;BME280_pressure;Samples;Min_cycle;Max_cycle;Signal;HPM_P1;HPM_P2
2021/12/06 00:01:39;;;;;;;12.90;6.88;;;;;;;1.14;99.73;98073.19;5063565;28;20084;-65
2021/12/06 00:04:17;;;;;;;12.65;6.32;;;;;;;1.19;99.98;98068.91;5063246;28;20056;-65
2021/12/06 00:06:45;;;;;;;13.48;6.35;;;;;;;1.24;99.51;98064.63;5063452;28;20013;-65
2021/12/06 00:09:18;;;;;;;13.35;6.90;;;;;;;1.26;99.76;98065.50;5063352;28;20317;-65
2021/12/06 00:11:43;;;;;;;10.95;5.78;;;;;;;1.40;99.01;98076.84;5063141;28;20025;-65
2021/12/06 00:14:09;;;;;;;11.73;6.60;;;;;;;1.28;98.48;98072.44;5063473;28;20028;-65
2021/12/06 00:16:35;;;;;;;14.25;6.75;;;;;;;1.24;98.98;98073.25;5063414;28;20351;-65
2021/12/06 00:19:01;;;;;;;13.30;7.38;;;;;;;1.28;98.93;98066.38;5063298;28;20285;-65
2021/12/06 00:21:27;;;;;;;10.13;6.22;;;;;;;1.20;98.80;98068.06;5063362;28;20024;-65
2021/12/06 00:23:53;;;;;;;11.05;6.47;;;;;;;1.36;99.36;98069.91;5063292;28;20384;-65
2021/12/06 00:26:18;;;;;;;13.50;7.18;;;;;;;1.42;98.80;98080.31;5062991;28;20024;-65
2021/12/06 00:28:46;;;;;;;11.77;6.82;;;;;;;1.24;98.84;98086.22;5063291;28;20017;-65
2021/12/06 00:31:13;;;;;;;21.95;7.47;;;;;;;1.22;99.22;98087.06;5065458;28;20083;-65
2021/12/06 00:33:40;;;;;;;15.85;6.47;;;;;;;1.31;99.31;98089.75;5067241;28;20020;-65
2021/12/06 00:36:15;;;;;;;13.43;6.97;;;;;;;1.29;99.04;98096.63;5067130;28;20016;-65
2021/12/06 00:38:42;;;;;;;14.38;7.47;;;;;;;1.25;99.36;98097.47;5067281;28;20324;-65
2021/12/06 00:41:08;;;;;;;16.98;9.38;;;;;;;1.12;99.68;98095.63;5067001;28;20039;-65
2021/12/06 00:43:34;;;;;;;17.45;9.60;;;;;;;1.12;100.00;98093.91;5067095;28;20343;-65
2021/12/06 00:45:59;;;;;;;17.98;8.07;;;;;;;1.25;100.00;98103.53;5066796;28;20220;-65
2021/12/06 00:48:25;;;;;;;17.50;7.72;;;;;;;1.18;100.00;98109.53;5067000;28;20258;-65
2021/12/06 00:50:51;;;;;;;15.25;7.65;;;;;;;1.20;100.00;98115.56;5066780;28;20088;-65
2021/12/06 00:53:16;;;;;;;14.30;7.65;;;;;;;1.25;99.86;98120.78;5066935;28;20236;-65
2021/12/06 00:55:41;;;;;;;16.20;7.88;;;;;;;1.19;99.76;98118.13;5066793;28;20043;-65
2021/12/06 00:58:07;;;;;;;14.63;7.25;;;;;;;1.22;99.53;98123.34;5066657;28;20027;-65
2021/12/06 01:00:40;;;;;;;14.60;7.63;;;;;;;1.12;99.40;98121.53;5066697;28;20342;-65
2021/12/06 01:03:10;;;;;;;15.52;7.78;;;;;;;1.11;99.40;98131.03;5066709;28;20017;-65
2021/12/06 01:05:36;;;;;;;14.63;7.30;;;;;;;1.00;99.38;98129.19;5066626;28;20021;-65
2021/12/06 01:08:02;;;;;;;13.30;7.00;;;;;;;0.98;99.42;98134.34;5058420;28;20021;-65
2021/12/06 01:10:28;;;;;;;11.68;6.10;;;;;;;0.93;98.67;98135.16;5066491;28;20036;-65
2021/12/06 01:12:55;;;;;;;12.52;6.45;;;;;;;0.71;98.89;98138.38;5066421;28;20024;-65
2021/12/06 01:15:20;;;;;;;15.15;7.43;;;;;;;0.69;99.08;98134.94;5066354;28;20055;-65
2021/12/06 01:17:46;;;;;;;14.40;7.35;;;;;;;0.74;99.10;98133.25;5066274;28;20032;-65
2021/12/06 01:20:19;;;;;;;14.95;6.82;;;;;;;0.69;98.94;98140.09;5066265;28;20096;-65
2021/12/06 01:22:52;;;;;;;13.20;6.45;;;;;;;0.58;99.11;98144.28;5066619;28;20304;-65
2021/12/06 01:25:38;;;;;;;13.15;7.32;;;;;;;0.43;99.25;98136.31;5066361;28;20025;-65
2021/12/06 01:41:29;;;;;;;11.13;6.55;;;;;;;0.12;99.40;98170.44;5066148;28;20086;-65
2021/12/06 01:44:05;;;;;;;9.52;6.35;;;;;;;0.10;99.41;98162.66;5065822;28;20024;-65
2021/12/06 01:46:32;;;;;;;12.98;7.22;;;;;;;0.01;99.53;98176.31;5065709;28;20088;-65
2021/12/06 01:48:57;;;;;;;14.88;7.72;;;;;;;0.14;99.49;98173.88;5065802;28;20324;-65
2021/12/06 01:51:22;;;;;;;13.93;6.63;;;;;;;0.18;99.21;98173.13;5065702;28;20028;-65
2021/12/06 01:53:48;;;;;;;12.63;7.28;;;;;;;0.17;99.01;98179.13;5065554;28;20290;-65
2021/12/06 01:56:15;;;;;;;12.73;6.63;;;;;;;0.18;98.67;98181.72;5065742;28;20020;-65
2021/12/06 01:58:43;;;;;;;11.50;5.72;;;;;;;0.09;97.79;98191.09;5065641;28;20025;-65
2021/12/06 02:01:08;;;;;;;14.23;6.00;;;;;;;0.01;98.19;98199.59;5065577;28;20363;-65
2021/12/06 02:03:34;;;;;;;11.40;6.32;;;;;;;-0.26;98.10;98191.41;5065105;28;20021;-65
2021/12/06 02:05:59;;;;;;;13.77;6.90;;;;;;;-0.25;99.09;98190.56;5065430;28;20313;-65
2021/12/06 02:08:24;;;;;;;12.55;5.93;;;;;;;-0.24;99.60;98197.50;5065493;28;20062;-65
2021/12/06 02:10:53;;;;;;;10.77;5.72;;;;;;;-0.28;99.65;98185.34;5065236;28;20052;-65
2021/12/06 02:13:19;;;;;;;13.20;5.95;;;;;;;-0.20;99.45;98201.88;5065289;28;20060;-65
2021/12/06 02:15:50;;;;;;;12.20;6.50;;;;;;;-0.26;99.86;98206.94;5064940;28;20059;-65
2021/12/06 02:18:39;;;;;;;12.15;7.03;;;;;;;-0.18;99.98;98202.75;5065262;28;20033;-65
2021/12/06 02:21:12;;;;;;;18.00;7.85;;;;;;;-0.06;100.00;98212.44;5065027;28;20028;-65
2021/12/06 02:23:37;;;;;;;14.68;7.63;;;;;;;-0.11;100.00;98209.78;5065166;28;20036;-65
2021/12/06 02:26:03;;;;;;;10.20;6.57;;;;;;;-0.03;99.78;98210.75;5064992;28;20025;-65
2021/12/06 02:28:28;;;;;;;11.77;6.40;;;;;;;-0.05;99.79;98220.22;5064763;28;20025;-65
2021/12/06 02:30:54;;;;;;;13.45;5.90;;;;;;;-0.05;100.00;98215.03;5064995;28;20313;-65
2021/12/06 02:33:21;;;;;;;16.25;7.03;;;;;;;0.13;99.69;98223.91;5064842;28;20023;-65
2021/12/06 02:35:47;;;;;;;12.25;6.90;;;;;;;0.06;98.53;98224.66;5064871;28;20336;-65
2021/12/06 02:38:12;;;;;;;12.93;6.55;;;;;;;0.10;98.56;98224.75;5064936;28;20027;-65
2021/12/06 02:40:40;;;;;;;12.77;6.20;;;;;;;0.21;98.75;98224.88;5064806;28;20062;-65
2021/12/06 02:43:07;;;;;;;9.85;5.50;;;;;;;0.24;98.27;98225.81;5064590;28;20012;-65
2021/12/06 02:45:33;;;;;;;12.35;6.43;;;;;;;0.23;98.16;98226.66;5065070;28;20025;-65
2021/12/06 02:48:01;;;;;;;13.98;6.32;;;;;;;0.08;98.07;98228.13;5064535;28;20020;-65
2021/12/06 02:50:33;;;;;;;9.55;5.90;;;;;;;0.09;98.46;98227.31;5064416;28;20309;-65
2021/12/06 02:52:59;;;;;;;11.23;6.78;;;;;;;0.22;98.31;98229.22;5064064;28;20020;-65
2021/12/06 02:55:34;;;;;;;12.93;7.57;;;;;;;0.30;98.56;98235.34;5064460;28;20027;-65
2021/12/06 02:58:21;;;;;;;20.10;9.52;;;;;;;0.27;98.33;98231.03;5064799;28;20334;-65
2021/12/06 03:00:55;;;;;;;16.58;7.70;;;;;;;0.36;99.02;98232.88;5059328;28;20017;-65
2021/12/06 03:03:21;;;;;;;16.60;7.78;;;;;;;0.43;99.11;98234.69;5063674;28;20017;-65
2021/12/06 03:05:52;;;;;;;18.33;9.07;;;;;;;0.59;98.68;98244.38;5064393;28;20025;-65
2021/12/06 03:08:40;;;;;;;15.57;7.65;;;;;;;0.61;98.13;98250.47;5064532;28;20320;-65
2021/12/06 03:11:14;;;;;;;14.50;7.93;;;;;;;0.60;98.26;98259.94;5063970;28;20024;-65
2021/12/06 03:13:40;;;;;;;14.75;7.55;;;;;;;0.58;98.09;98251.31;5064286;28;20065;-65
2021/12/06 03:16:06;;;;;;;13.02;7.40;;;;;;;0.70;98.23;98255.78;5063988;28;20044;-65
2021/12/06 03:18:35;;;;;;;15.02;7.88;;;;;;;0.74;98.17;98257.56;5063369;28;20048;-65
2021/12/06 03:21:00;;;;;;;15.57;7.50;;;;;;;0.82;98.49;98266.31;5063144;28;20217;-65
2021/12/06 03:23:26;;;;;;;13.93;7.53;;;;;;;0.87;97.99;98268.09;5063110;28;20066;-65
2021/12/06 03:25:52;;;;;;;13.43;7.95;;;;;;;0.89;97.98;98262.94;5063116;28;20021;-65
2021/12/06 03:28:18;;;;;;;14.77;8.45;;;;;;;0.81;97.83;98260.25;5063007;28;20047;-65
2021/12/06 03:30:43;;;;;;;13.40;7.68;;;;;;;0.76;97.66;98269.66;5063375;28;20029;-65
2021/12/06 03:33:09;;;;;;;15.10;8.02;;;;;;;0.69;98.21;98267.00;5063226;28;20020;-65
2021/12/06 03:35:34;;;;;;;17.88;7.80;;;;;;;0.80;98.75;98278.34;5062987;28;20252;-65
2021/12/06 03:38:00;;;;;;;13.85;7.10;;;;;;;0.86;98.38;98283.63;5063093;28;20024;-65
2021/12/06 03:40:25;;;;;;;13.88;7.25;;;;;;;0.90;98.39;98291.44;5063099;28;20032;-66
2021/12/06 03:42:51;;;;;;;14.25;7.43;;;;;;;0.99;98.35;98293.28;5062932;28;20220;-66
2021/12/06 03:45:16;;;;;;;11.63;6.60;;;;;;;1.00;98.49;98297.59;5062908;28;20033;-66
2021/12/06 03:47:42;;;;;;;13.02;6.45;;;;;;;1.03;98.65;98302.81;5062800;28;20024;-66
2021/12/06 03:50:12;;;;;;;13.43;6.72;;;;;;;0.98;99.51;98301.91;5062844;28;20374;-66
2021/12/06 03:52:38;;;;;;;12.68;6.80;;;;;;;0.96;99.93;98301.00;5062671;28;20036;-66
2021/12/06 03:55:06;;;;;;;12.95;7.15;;;;;;;0.99;99.80;98311.41;5062662;28;20032;-66
2021/12/06 03:57:32;;;;;;;11.73;6.65;;;;;;;1.11;99.98;98309.00;5062794;28;20079;-66
2021/12/06 03:59:57;;;;;;;15.43;7.40;;;;;;;1.15;99.87;98308.16;5062578;28;20052;-66
2021/12/06 04:02:26;;;;;;;20.85;8.80;;;;;;;1.20;99.68;98303.91;5062738;28;20044;-66
2021/12/06 04:04:52;;;;;;;21.88;8.05;;;;;;;1.21;99.55;98306.53;5061568;28;20309;-66
2021/12/06 04:07:18;;;;;;;20.52;8.30;;;;;;;1.27;99.90;98314.34;5062487;28;20029;-66
2021/12/06 04:09:43;;;;;;;23.08;8.63;;;;;;;1.23;100.00;98322.09;5062631;28;20044;-66
2021/12/06 04:12:10;;;;;;;24.98;8.45;;;;;;;1.17;100.00;98327.22;5062425;28;20033;-66
2021/12/06 04:14:38;;;;;;;26.20;8.50;;;;;;;1.08;100.00;98337.44;5062884;28;20367;-66
2021/12/06 04:17:04;;;;;;;25.73;8.60;;;;;;;1.26;100.00;98348.91;5022196;28;1152180;-66
2021/12/06 04:19:29;;;;;;;22.52;8.50;;;;;;;1.41;100.00;98343.03;5063035;28;20347;-66
2021/12/06 04:21:55;;;;;;;21.63;7.90;;;;;;;1.48;100.00;98344.84;5063187;28;20071;-66
2021/12/06 04:24:20;;;;;;;19.90;7.30;;;;;;;1.52;100.00;98341.44;5063097;28;20044;-66
2021/12/06 04:26:46;;;;;;;21.73;8.60;;;;;;;1.48;100.00;98337.06;5063189;28;20032;-66
2021/12/06 04:29:12;;;;;;;20.17;9.07;;;;;;;1.40;100.00;98330.94;5063213;28;20051;-66
2021/12/06 04:31:48;;;;;;;15.55;6.97;;;;;;;1.52;100.00;98342.31;5063843;28;20017;-66
2021/12/06 04:34:14;;;;;;;15.85;8.00;;;;;;;1.59;100.00;98343.25;5063052;28;20036;-66
2021/12/06 04:36:42;;;;;;;17.17;8.07;;;;;;;1.65;100.00;98343.31;5063044;28;20036;-66
2021/12/06 04:39:09;;;;;;;27.65;8.75;;;;;;;1.58;100.00;98352.75;5063176;28;20067;-66
2021/12/06 04:41:36;;;;;;;26.67;9.85;;;;;;;1.56;100.00;98351.88;5063014;28;20017;-66
2021/12/06 04:44:02;;;;;;;33.78;10.73;;;;;;;1.30;100.00;98350.69;5063189;28;20305;-66
2021/12/06 04:46:28;;;;;;;24.60;10.23;;;;;;;1.48;100.00;98357.81;5063051;28;20028;-66
2021/12/06 04:48:53;;;;;;;30.77;11.20;;;;;;;1.43;100.00;98362.09;5062911;28;20239;-66
2021/12/06 04:51:19;;;;;;;37.38;10.98;;;;;;;1.30;100.00;98371.41;5062526;28;20024;-66
2021/12/06 04:53:45;;;;;;;46.53;9.75;;;;;;;1.29;100.00;98374.88;5063053;28;20025;-66
2021/12/06 04:56:19;;;;;;;20.50;9.63;;;;;;;1.33;100.00;98380.97;5063050;28;20029;-66
2021/12/06 04:59:30;;;;;;;34.72;10.45;;;;;;;1.44;100.00;98381.97;5062984;28;20075;-66
2021/12/06 05:01:59;;;;;;;49.83;12.88;;;;;;;1.40;100.00;98382.78;5061166;28;20051;-66
2021/12/06 05:04:30;;;;;;;34.72;12.88;;;;;;;1.56;100.00;98389.91;5063097;28;20029;-66
2021/12/06 05:07:03;;;;;;;28.52;10.70;;;;;;;1.57;100.00;98396.81;5063287;28;20020;-66
2021/12/06 05:09:33;;;;;;;43.03;11.88;;;;;;;1.49;100.00;98388.09;5062558;28;20059;-66
2021/12/06 05:11:59;;;;;;;41.47;13.35;;;;;;;1.48;100.00;98392.41;5063092;28;20340;-65
2021/12/06 05:14:25;;;;;;;29.20;12.10;;;;;;;1.47;100.00;98388.06;5063186;28;20032;-65
2021/12/06 05:16:52;;;;;;;19.67;9.10;;;;;;;1.53;100.00;98390.75;5064627;28;20198;-65
2021/12/06 05:19:18;;;;;;;32.92;10.23;;;;;;;1.64;100.00;98389.13;5066766;28;20021;-65
2021/12/06 05:21:44;;;;;;;28.30;9.68;;;;;;;1.70;100.00;98391.81;5066730;28;20013;-65
2021/12/06 05:24:10;;;;;;;24.55;10.35;;;;;;;1.57;100.00;98392.50;5066630;28;20032;-65
2021/12/06 05:26:37;;;;;;;20.90;8.77;;;;;;;1.70;100.00;98401.28;5066858;28;20251;-65
2021/12/06 05:29:06;;;;;;;22.08;9.63;;;;;;;1.79;100.00;98404.88;5066788;28;20020;-65
2021/12/06 05:31:33;;;;;;;20.48;9.55;;;;;;;1.78;100.00;98402.25;5066391;28;20025;-65
2021/12/06 05:34:03;;;;;;;27.27;8.18;;;;;;;1.67;100.00;98404.72;5066671;28;20020;-65
2021/12/06 05:36:28;;;;;;;16.75;8.32;;;;;;;1.76;100.00;98404.84;5066419;28;20093;-66
2021/12/06 05:38:55;;;;;;;16.80;8.32;;;;;;;1.87;100.00;98416.19;5066331;28;20036;-66
2021/12/06 05:41:21;;;;;;;19.15;9.20;;;;;;;1.86;100.00;98416.19;5066299;28;20017;-65
2021/12/06 05:43:47;;;;;;;21.75;8.73;;;;;;;1.77;100.00;98416.94;5066258;28;20024;-65
2021/12/06 05:46:14;;;;;;;19.85;8.90;;;;;;;1.71;100.00;98426.41;5066197;28;20047;-65
2021/12/06 05:48:40;;;;;;;15.68;8.10;;;;;;;1.70;100.00;98430.72;5066171;28;20044;-65
2021/12/06 05:51:05;;;;;;;16.25;8.70;;;;;;;1.77;100.00;98432.50;5066011;28;20048;-66
2021/12/06 05:53:31;;;;;;;16.55;8.00;;;;;;;1.76;100.00;98446.34;5066075;28;20372;-66
2021/12/06 05:55:57;;;;;;;17.95;9.20;;;;;;;1.72;100.00;98448.88;5066003;28;20190;-66
2021/12/06 05:58:26;;;;;;;15.43;8.10;;;;;;;1.81;100.00;98443.81;5065957;28;20035;-66
2021/12/06 06:00:53;;;;;;;15.48;7.97;;;;;;;1.82;100.00;98449.03;5066464;28;20209;-66
2021/12/06 06:03:19;;;;;;;27.75;9.63;;;;;;;1.87;100.00;98449.06;5065835;28;20024;-66
2021/12/06 06:05:45;;;;;;;17.85;9.45;;;;;;;1.88;100.00;98456.00;5065846;28;20248;-66
2021/12/06 06:08:11;;;;;;;20.58;9.20;;;;;;;1.92;100.00;98465.56;5066053;28;20017;-66
2021/12/06 06:10:37;;;;;;;15.75;8.32;;;;;;;1.82;100.00;98466.31;5065664;28;20328;-66
2021/12/06 06:13:04;;;;;;;23.20;9.63;;;;;;;1.64;100.00;98471.25;5065717;28;20275;-66
2021/12/06 06:15:30;;;;;;;19.70;9.68;;;;;;;1.63;100.00;98480.78;5065682;28;20087;-66
2021/12/06 06:17:59;;;;;;;23.23;9.60;;;;;;;1.65;100.00;98478.22;5065482;28;20048;-66
2021/12/06 06:20:33;;;;;;;23.23;9.43;;;;;;;1.65;100.00;98478.22;5065610;28;20044;-65
2021/12/06 06:22:59;;;;;;;22.80;10.80;;;;;;;1.51;100.00;98479.72;5065573;28;20224;-65
2021/12/06 06:25:25;;;;;;;24.48;10.75;;;;;;;1.46;100.00;98482.25;5065518;28;20040;-65
2021/12/06 06:27:50;;;;;;;30.70;13.07;;;;;;;1.43;100.00;98487.41;5064460;28;20031;-66
2021/12/06 06:30:16;;;;;;;26.50;11.27;;;;;;;1.45;100.00;98490.00;5065444;28;20084;-66
2021/12/06 06:32:43;;;;;;;23.02;10.77;;;;;;;1.47;100.00;98496.09;5065238;28;20032;-66
2021/12/06 06:35:09;;;;;;;24.30;10.32;;;;;;;1.58;100.00;98504.91;5065299;28;20080;-66
2021/12/06 06:37:35;;;;;;;22.95;10.20;;;;;;;1.50;100.00;98496.16;5065300;28;20029;-66
2021/12/06 06:40:00;;;;;;;24.85;10.60;;;;;;;1.51;100.00;98498.75;5065204;28;20026;-66
2021/12/06 06:42:27;;;;;;;28.42;11.77;;;;;;;1.37;100.00;98502.00;5065173;28;20029;-66
2021/12/06 06:44:56;;;;;;;30.85;14.40;;;;;;;1.31;100.00;98500.22;5065356;28;20213;-66
2021/12/06 06:47:23;;;;;;;36.08;15.40;;;;;;;1.35;100.00;98509.78;5065066;28;20045;-66
2021/12/06 06:49:49;;;;;;;35.08;15.30;;;;;;;1.38;100.00;98514.13;5065022;28;20052;-65
2021/12/06 06:52:15;;;;;;;41.83;13.95;;;;;;;1.63;100.00;98521.41;5064854;28;20321;-66
2021/12/06 06:54:41;;;;;;;36.97;13.52;;;;;;;1.66;100.00;98529.22;5064953;28;20082;-66
2021/12/06 06:57:06;;;;;;;77.45;12.30;;;;;;;1.62;100.00;98524.84;5064876;28;20029;-66
2021/12/06 06:59:32;;;;;;;70.85;12.43;;;;;;;1.41;100.00;98532.31;5064823;28;20225;-66
2021/12/06 07:01:58;;;;;;;23.35;10.82;;;;;;;1.54;100.00;98536.81;5064786;28;20032;-66
2021/12/06 07:04:24;;;;;;;29.42;11.35;;;;;;;1.62;100.00;98545.59;5063508;28;20028;-66
2021/12/06 07:06:51;;;;;;;31.58;12.30;;;;;;;1.55;100.00;98543.78;5064717;28;20024;-66
2021/12/06 07:09:16;;;;;;;123.22;13.68;;;;;;;1.40;100.00;98540.94;5064634;28;20029;-66
2021/12/06 07:11:44;;;;;;;29.30;12.50;;;;;;;1.47;100.00;98543.66;5064781;28;20372;-66
2021/12/06 07:14:11;;;;;;;56.33;11.32;;;;;;;1.59;100.00;98545.56;5064563;28;20321;-66
2021/12/06 07:16:36;;;;;;;43.03;9.80;;;;;;;1.61;100.00;98543.84;5064445;28;20111;-66
2021/12/06 07:19:03;;;;;;;47.50;10.18;;;;;;;1.59;100.00;98550.75;5064458;28;20029;-66
2021/12/06 07:21:29;;;;;;;18.13;8.63;;;;;;;1.65;100.00;98561.22;5064700;28;20212;-66
2021/12/06 07:23:55;;;;;;;33.97;13.52;;;;;;;1.69;100.00;98548.31;5064355;28;20052;-66
2021/12/06 07:26:21;;;;;;;39.53;14.32;;;;;;;1.72;100.00;98563.91;5064314;28;20025;-66
2021/12/06 07:28:50;;;;;;;45.60;13.02;;;;;;;1.61;100.00;98574.97;5064314;28;20202;-66
2021/12/06 07:31:17;;;;;;;30.20;12.52;;;;;;;1.72;100.00;98581.19;5064439;28;20021;-66
2021/12/06 07:33:43;;;;;;;31.63;11.25;;;;;;;1.60;100.00;98584.47;5064290;28;20032;-66
2021/12/06 07:36:09;;;;;;;36.58;10.00;;;;;;;1.72;100.00;98588.97;5064450;28;20047;-66
2021/12/06 07:38:37;;;;;;;25.20;10.30;;;;;;;1.77;100.00;98593.38;5064320;28;20265;-66
2021/12/06 07:41:05;;;;;;;24.70;8.65;;;;;;;1.74;100.00;98589.88;5063922;28;20071;-66
2021/12/06 07:43:30;;;;;;;30.73;8.60;;;;;;;1.75;100.00;98596.81;5064069;28;20260;-66
2021/12/06 07:45:56;;;;;;;59.40;10.13;;;;;;;1.61;100.00;98590.53;5064005;28;20080;-66
2021/12/06 07:48:21;;;;;;;21.80;9.52;;;;;;;1.60;100.00;98594.88;5064022;28;20221;-66
2021/12/06 07:50:47;;;;;;;23.33;9.18;;;;;;;1.56;100.00;98594.78;5063916;28;20024;-65
2021/12/06 07:53:12;;;;;;;18.98;9.02;;;;;;;1.60;100.00;98599.16;5063929;28;20048;-65
2021/12/06 07:55:38;;;;;;;31.30;8.95;;;;;;;1.61;100.00;98611.28;5063938;28;20082;-65
2021/12/06 07:58:09;;;;;;;50.30;9.13;;;;;;;1.60;100.00;98599.16;5060030;28;20031;-65
2021/12/06 08:00:38;;;;;;;26.67;8.50;;;;;;;1.68;100.00;98613.13;5060560;28;20044;-65
2021/12/06 08:03:06;;;;;;;18.13;8.55;;;;;;;1.80;100.00;98618.47;5063747;28;20029;-65
2021/12/06 08:05:32;;;;;;;25.35;10.00;;;;;;;1.87;100.00;98615.16;5054962;28;20107;-65
2021/12/06 08:08:22;;;;;;;17.27;8.07;;;;;;;1.95;100.00;98618.72;5053648;28;20240;-66
2021/12/06 08:10:50;;;;;;;25.13;8.40;;;;;;;1.84;100.00;98615.09;5054749;28;20340;-66
2021/12/06 08:13:19;;;;;;;38.65;8.50;;;;;;;1.63;100.00;98614.78;5053653;28;20025;-66
2021/12/06 08:15:45;;;;;;;25.10;8.30;;;;;;;1.60;100.00;98617.31;5054387;28;20092;-66
2021/12/06 08:18:11;;;;;;;35.15;9.55;;;;;;;1.56;100.00;98607.75;5053014;28;20069;-66
2021/12/06 08:20:37;;;;;;;21.60;8.52;;;;;;;1.83;100.00;98608.16;5051652;28;20025;-66
2021/12/06 08:23:04;;;;;;;20.73;9.35;;;;;;;1.91;100.00;98611.75;5062683;28;20319;-66
2021/12/06 08:25:29;;;;;;;24.70;9.18;;;;;;;2.08;100.00;98615.44;5061801;28;20027;-66
2021/12/06 08:27:55;;;;;;;24.00;10.63;;;;;;;2.01;100.00;98609.31;5065023;28;20294;-66
2021/12/06 08:30:22;;;;;;;19.23;8.65;;;;;;;2.14;100.00;98610.31;5065638;28;20035;-66
2021/12/06 08:32:50;;;;;;;26.17;9.77;;;;;;;2.19;99.62;98608.66;5080078;28;20320;-66
2021/12/06 08:35:16;;;;;;;24.15;10.00;;;;;;;2.06;100.00;98598.97;5067403;28;20024;-66
2021/12/06 08:37:43;;;;;;;24.58;9.77;;;;;;;2.06;100.00;98597.25;5072338;28;20096;-66
2021/12/06 08:40:09;;;;;;;20.67;9.05;;;;;;;2.32;99.75;98595.00;5070311;28;20028;-66
2021/12/06 08:42:35;;;;;;;22.95;9.60;;;;;;;2.36;99.43;98588.97;5061727;28;20084;-66
2021/12/06 08:45:01;;;;;;;22.90;10.45;;;;;;;2.40;99.18;98593.34;5062540;28;20546;-66
2021/12/06 08:47:26;;;;;;;20.42;9.95;;;;;;;2.56;98.79;98605.66;5062507;28;20325;-66
2021/12/06 08:49:51;;;;;;;22.30;10.18;;;;;;;2.68;98.00;98611.00;5062464;28;20025;-66
2021/12/06 08:52:18;;;;;;;23.77;10.88;;;;;;;2.83;97.84;98621.56;5064131;28;20028;-65
2021/12/06 08:54:44;;;;;;;19.98;9.90;;;;;;;2.75;97.02;98623.19;5065883;28;20032;-66
2021/12/06 08:57:09;;;;;;;21.58;9.93;;;;;;;2.78;96.66;98633.63;5066255;28;20029;-66
2021/12/06 08:59:35;;;;;;;30.77;9.93;;;;;;;2.50;97.11;98628.09;5066175;28;20067;-66
2021/12/06 09:02:02;;;;;;;33.45;10.23;;;;;;;2.45;97.05;98629.75;5066111;28;20020;-66
2021/12/06 09:04:31;;;;;;;25.10;8.90;;;;;;;2.69;96.98;98636.09;5066025;28;20325;-66
2021/12/06 09:06:58;;;;;;;23.58;9.73;;;;;;;2.89;96.57;98637.22;5076096;28;20193;-66
2021/12/06 09:09:27;;;;;;;19.52;9.10;;;;;;;2.84;96.18;98633.69;5076044;28;20041;-66
2021/12/06 09:11:53;;;;;;;18.65;8.82;;;;;;;2.89;96.27;98650.22;5074079;28;20106;-66
2021/12/06 09:14:18;;;;;;;22.50;9.60;;;;;;;3.00;96.16;98640.78;5071403;28;20016;-66
2021/12/06 09:16:45;;;;;;;35.83;7.97;;;;;;;2.77;96.06;98637.09;5065687;28;20331;-66
2021/12/06 09:19:13;;;;;;;19.85;8.23;;;;;;;3.00;95.80;98646.00;5070364;28;20212;-66
2021/12/06 09:21:40;;;;;;;17.27;8.77;;;;;;;3.13;95.61;98642.66;5074817;28;20044;-66
2021/12/06 09:24:12;;;;;;;23.90;8.75;;;;;;;2.95;96.34;98637.28;5074583;28;20020;-66
2021/12/06 09:26:38;;;;;;;25.25;9.70;;;;;;;2.98;96.84;98647.72;5077836;28;20033;-66
2021/12/06 09:29:05;;;;;;;40.50;8.75;;;;;;;2.99;96.72;98639.06;5084937;28;20085;-66
2021/12/06 09:31:30;;;;;;;22.55;9.23;;;;;;;3.02;97.00;98640.81;5077397;28;20025;-66
2021/12/06 09:33:56;;;;;;;32.45;9.35;;;;;;;3.12;96.81;98640.91;5085188;28;20340;-66
2021/12/06 09:36:22;;;;;;;31.08;9.95;;;;;;;3.07;96.80;98647.78;5085005;28;20032;-66
2021/12/06 09:38:47;;;;;;;36.90;9.57;;;;;;;2.99;97.29;98654.66;5085460;28;20205;-66
2021/12/06 09:41:21;;;;;;;84.43;12.95;;;;;;;2.96;97.45;98649.41;5085416;28;20017;-66
2021/12/06 09:43:48;;;;;;;57.20;12.52;;;;;;;3.12;98.04;98645.25;5073147;28;20096;-66
2021/12/06 09:46:15;;;;;;;36.00;12.20;;;;;;;3.22;97.72;98647.94;5064902;28;20024;-66
2021/12/06 09:48:42;;;;;;;54.85;12.18;;;;;;;3.09;97.53;98651.28;5065275;28;20047;-66
2021/12/06 09:51:14;;;;;;;31.40;10.38;;;;;;;3.31;98.21;98647.16;5065140;28;20032;-66
2021/12/06 09:53:41;;;;;;;55.95;11.43;;;;;;;3.39;97.90;98641.16;5065235;28;20028;-66
2021/12/06 09:56:10;;;;;;;33.22;9.30;;;;;;;3.54;97.38;98636.09;5068002;28;20100;-66
2021/12/06 09:58:36;;;;;;;29.77;9.68;;;;;;;3.84;96.65;98640.66;5075585;28;20386;-66
2021/12/06 10:01:14;;;;;;;35.67;10.50;;;;;;;3.51;95.45;98633.47;5073661;28;20017;-66
2021/12/06 10:03:41;;;;;;;43.95;8.40;;;;;;;3.24;94.06;98630.63;5084913;28;20028;-66
2021/12/06 10:06:08;;;;;;;22.92;7.00;;;;;;;3.27;94.64;98641.06;5085309;28;20020;-66
2021/12/06 10:08:42;;;;;;;19.83;7.57;;;;;;;3.31;95.15;98637.63;5084954;28;20324;-66
2021/12/06 10:11:08;;;;;;;46.55;7.65;;;;;;;3.07;95.97;98636.53;5085121;28;20243;-66
2021/12/06 10:13:35;;;;;;;20.67;8.30;;;;;;;3.12;96.58;98640.03;5085027;28;20200;-66
2021/12/06 10:16:01;;;;;;;14.93;8.27;;;;;;;3.32;95.96;98644.56;5084822;28;20035;-66
2021/12/06 10:18:26;;;;;;;17.60;8.70;;;;;;;3.34;95.95;98648.06;5084634;28;20040;-66
2021/12/06 10:20:52;;;;;;;23.35;9.18;;;;;;;3.27;96.55;98646.28;5084718;28;20376;-66
2021/12/06 10:23:19;;;;;;;15.45;8.80;;;;;;;3.51;96.29;98645.63;5084674;28;20312;-65
2021/12/06 10:25:49;;;;;;;21.45;9.55;;;;;;;3.52;96.14;98648.25;5084193;28;20027;-66
2021/12/06 10:28:17;;;;;;;15.57;8.13;;;;;;;3.71;94.94;98647.53;5084530;28;20024;-66
2021/12/06 10:30:50;;;;;;;16.13;8.93;;;;;;;3.68;95.99;98638.81;5084015;28;20021;-66
2021/12/06 10:33:20;;;;;;;18.13;8.20;;;;;;;3.67;96.57;98632.72;5084465;28;20087;-66
2021/12/06 10:35:49;;;;;;;20.30;9.55;;;;;;;3.77;96.60;98624.13;5084381;28;20020;-66
2021/12/06 10:38:23;;;;;;;19.85;8.45;;;;;;;3.69;95.64;98624.94;5083953;28;20036;-66
2021/12/06 10:40:50;;;;;;;20.17;10.30;;;;;;;3.85;95.79;98627.66;5084322;28;20024;-66
2021/12/06 10:43:16;;;;;;;21.65;11.02;;;;;;;3.78;95.85;98619.78;5084253;28;20304;-66
2021/12/06 10:45:48;;;;;;;23.33;11.15;;;;;;;3.81;96.02;98628.50;5084205;28;20346;-66
2021/12/06 10:48:15;;;;;;;23.15;11.70;;;;;;;3.68;95.76;98616.28;5084214;28;20070;-66
2021/12/06 10:50:53;;;;;;;23.50;11.82;;;;;;;3.71;95.63;98624.09;5080820;28;20035;-66
2021/12/06 10:53:21;;;;;;;20.33;9.77;;;;;;;4.00;96.79;98630.38;5070233;28;20073;-66
2021/12/06 10:55:51;;;;;;;25.65;11.25;;;;;;;4.22;94.84;98624.44;5073096;28;20020;-66
2021/12/06 10:58:20;;;;;;;20.73;9.32;;;;;;;4.47;94.67;98621.06;5074758;28;20016;-66
2021/12/06 11:01:14;;;;;;;19.25;9.07;;;;;;;4.53;93.80;98628.06;5076608;28;20074;-66
2021/12/06 11:03:47;;;;;;;21.00;10.25;;;;;;;4.45;93.10;98624.53;5069180;28;20032;-66
2021/12/06 11:06:20;;;;;;;23.33;11.85;;;;;;;4.39;92.90;98627.97;5072937;28;20028;-66
2021/12/06 11:08:47;;;;;;;;;;;;;;;4.44;94.79;98626.25;5070187;28;20134;-66
2021/12/06 11:11:24;;;;;;;16.08;8.18;;;;;;;4.43;95.45;98623.63;5072980;28;19950;-66
2021/12/06 11:13:53;;;;;;;16.42;8.05;;;;;;;4.49;95.91;98624.56;5068754;28;20020;-66
2021/12/06 11:16:25;;;;;;;18.33;7.63;;;;;;;4.69;95.01;98631.56;5073447;28;20032;-66
2021/12/06 11:19:11;;;;;;;17.98;8.82;;;;;;;4.84;95.28;98631.63;5058363;28;20041;-66
2021/12/06 11:21:38;;;;;;;15.55;7.78;;;;;;;4.84;94.66;98636.84;5069929;28;20236;-66
2021/12/06 11:24:08;;;;;;;18.80;8.70;;;;;;;4.72;94.71;98634.19;5072409;28;20520;-66
2021/12/06 11:26:36;;;;;;;19.50;11.00;;;;;;;4.52;94.26;98625.44;5071819;28;20220;-65
2021/12/06 11:29:04;;;;;;;22.65;10.48;;;;;;;4.46;94.49;98624.53;5074524;28;20013;-65
2021/12/06 11:31:31;;;;;;;27.33;12.90;;;;;;;4.42;94.65;98621.91;5074379;28;20021;-66
2021/12/06 11:34:02;;;;;;;26.85;12.98;;;;;;;4.32;94.12;98620.13;5084502;28;20346;-66
2021/12/06 11:36:30;;;;;;;26.17;12.23;;;;;;;4.23;94.95;98620.97;5084274;28;20028;-66
2021/12/06 11:39:25;;;;;;;26.50;12.32;;;;;;;4.25;95.49;98618.38;5084145;28;20083;-66
2021/12/06 11:41:55;;;;;;;17.60;10.02;;;;;;;4.21;95.63;98622.66;5067162;28;20053;-66
2021/12/06 11:44:23;;;;;;;22.17;10.35;;;;;;;4.37;96.11;98623.63;5084144;28;20028;-66